sensor_id;sensor_type;location;lat;lon;timestamp;pressure;altitude;pressure_sealevel;temperature;humidity
23619;BME280;18207;32.078;34.818;2023-08-20T00:01:00;100325.78;;;33.85;46.63
23619;BME280;18207;32.078;34.818;2023-08-20T00:03:33;100324.94;;;33.84;46.41
23619;BME280;18207;32.078;34.818;2023-08-20T00:06:04;100323.72;;;33.85;46.40
23619;BME280;18207;32.078;34.818;2023-08-20T00:08:34;100322.09;;;33.84;46.96
23619;BME280;18207;32.078;34.818;2023-08-20T00:11:05;100310.28;;;33.86;46.65
23619;BME280;18207;32.078;34.818;2023-08-20T00:13:37;100309.03;;;33.87;46.82
23619;BME280;18207;32.078;34.818;2023-08-20T00:16:09;100306.19;;;33.87;46.69
23619;BME280;18207;32.078;34.818;2023-08-20T00:18:41;100311.06;;;33.86;46.56
23619;BME280;18207;32.078;34.818;2023-08-20T00:21:13;100310.69;;;33.84;46.34
23619;BME280;18207;32.078;34.818;2023-08-20T00:23:44;100311.94;;;33.83;46.45
23619;BME280;18207;32.078;34.818;2023-08-20T00:26:16;100300.53;;;33.83;46.46
23619;BME280;18207;32.078;34.818;2023-08-20T00:28:49;100308.66;;;33.85;46.75
23619;BME280;18207;32.078;34.818;2023-08-20T00:31:18;100307.84;;;33.84;46.28
23619;BME280;18207;32.078;34.818;2023-08-20T00:33:49;100306.22;;;33.83;46.32
23619;BME280;18207;32.078;34.818;2023-08-20T00:36:33;100298.13;;;33.82;46.81
23619;BME280;18207;32.078;34.818;2023-08-20T00:39:03;100301.78;;;33.82;46.51
23619;BME280;18207;32.078;34.818;2023-08-20T00:41:35;100309.09;;;33.83;46.83
23619;BME280;18207;32.078;34.818;2023-08-20T00:44:07;100307.06;;;33.84;46.49
23619;BME280;18207;32.078;34.818;2023-08-20T00:46:38;100303.38;;;33.83;46.84
23619;BME280;18207;32.078;34.818;2023-08-20T00:49:09;100311.13;;;33.83;46.62
23619;BME280;18207;32.078;34.818;2023-08-20T00:51:40;100311.59;;;33.81;46.62
23619;BME280;18207;32.078;34.818;2023-08-20T00:54:11;100309.53;;;33.82;46.81
23619;BME280;18207;32.078;34.818;2023-08-20T00:56:42;100309.97;;;33.80;46.22
23619;BME280;18207;32.078;34.818;2023-08-20T00:59:14;100307.53;;;33.79;46.29
23619;BME280;18207;32.078;34.818;2023-08-20T01:01:45;100310.84;;;33.77;46.95
23619;BME280;18207;32.078;34.818;2023-08-20T01:04:16;100308.44;;;33.76;46.82
23619;BME280;18207;32.078;34.818;2023-08-20T01:06:58;100305.22;;;33.74;46.72
23619;BME280;18207;32.078;34.818;2023-08-20T01:09:43;100309.75;;;33.71;46.39
23619;BME280;18207;32.078;34.818;2023-08-20T01:12:17;100306.97;;;33.68;47.09
23619;BME280;18207;32.078;34.818;2023-08-20T01:14:51;100314.25;;;33.69;46.70
23619;BME280;18207;32.078;34.818;2023-08-20T01:17:22;100313.47;;;33.68;47.04
23619;BME280;18207;32.078;34.818;2023-08-20T01:19:52;100310.59;;;33.68;46.58
23619;BME280;18207;32.078;34.818;2023-08-20T01:22:45;100307.31;;;33.70;46.44
23619;BME280;18207;32.078;34.818;2023-08-20T01:25:40;100312.22;;;33.69;46.93
23619;BME280;18207;32.078;34.818;2023-08-20T01:28:36;100309.38;;;33.69;46.50
23619;BME280;18207;32.078;34.818;2023-08-20T01:31:08;100312.22;;;33.69;46.12
23619;BME280;18207;32.078;34.818;2023-08-20T01:33:41;100315.88;;;33.70;46.76
23619;BME280;18207;32.078;34.818;2023-08-20T01:36:12;100308.91;;;33.71;46.97
23619;BME280;18207;32.078;34.818;2023-08-20T01:38:43;100310.53;;;33.72;46.48
23619;BME280;18207;32.078;34.818;2023-08-20T01:41:13;100307.69;;;33.72;46.86
23619;BME280;18207;32.078;34.818;2023-08-20T01:43:46;100302.44;;;33.70;46.38
23619;BME280;18207;32.078;34.818;2023-08-20T01:46:16;100299.56;;;33.70;46.81
23619;BME280;18207;32.078;34.818;2023-08-20T01:48:47;100307.31;;;33.70;46.61
23619;BME280;18207;32.078;34.818;2023-08-20T01:51:17;100301.97;;;33.72;46.74
23619;BME280;18207;32.078;34.818;2023-08-20T01:53:48;100299.13;;;33.72;46.90
23619;BME280;18207;32.078;34.818;2023-08-20T01:56:21;100298.34;;;33.71;46.82
23619;BME280;18207;32.078;34.818;2023-08-20T01:58:53;100299.56;;;33.70;46.75
23619;BME280;18207;32.078;34.818;2023-08-20T02:01:24;100297.50;;;33.71;46.61
23619;BME280;18207;32.078;34.818;2023-08-20T02:03:55;100297.50;;;33.71;46.83
23619;BME280;18207;32.078;34.818;2023-08-20T02:06:25;100283.25;;;33.71;46.73
23619;BME280;18207;32.078;34.818;2023-08-20T02:08:55;100285.69;;;33.72;46.36
23619;BME280;18207;32.078;34.818;2023-08-20T02:11:26;100292.97;;;33.73;46.36
23619;BME280;18207;32.078;34.818;2023-08-20T02:13:57;100284.44;;;33.73;46.22
23619;BME280;18207;32.078;34.818;2023-08-20T02:16:27;100281.22;;;33.71;46.26
23619;BME280;18207;32.078;34.818;2023-08-20T02:18:58;100290.19;;;33.70;46.46
23619;BME280;18207;32.078;34.818;2023-08-20T02:21:30;100293.50;;;33.68;46.60
23619;BME280;18207;32.078;34.818;2023-08-20T02:24:00;100295.13;;;33.69;46.50
23619;BME280;18207;32.078;34.818;2023-08-20T02:26:31;100286.56;;;33.69;46.04
23619;BME280;18207;32.078;34.818;2023-08-20T02:29:04;100289.84;;;33.68;46.32
23619;BME280;18207;32.078;34.818;2023-08-20T02:31:35;100293.13;;;33.66;46.75
23619;BME280;18207;32.078;34.818;2023-08-20T02:34:05;100290.28;;;33.66;46.72
23619;BME280;18207;32.078;34.818;2023-08-20T02:36:36;100297.22;;;33.65;46.65
23619;BME280;18207;32.078;34.818;2023-08-20T02:39:06;100295.19;;;33.66;46.52
23619;BME280;18207;32.078;34.818;2023-08-20T02:41:37;100303.75;;;33.66;46.47
23619;BME280;18207;32.078;34.818;2023-08-20T02:44:09;100292.34;;;33.66;46.08
23619;BME280;18207;32.078;34.818;2023-08-20T02:46:40;100299.66;;;33.67;46.36
23619;BME280;18207;32.078;34.818;2023-08-20T02:49:12;100305.34;;;33.67;46.06
23619;BME280;18207;32.078;34.818;2023-08-20T02:51:43;100304.13;;;33.68;46.13
23619;BME280;18207;32.078;34.818;2023-08-20T02:54:14;100301.69;;;33.66;46.48
23619;BME280;18207;32.078;34.818;2023-08-20T02:56:44;100303.75;;;33.66;46.24
23619;BME280;18207;32.078;34.818;2023-08-20T02:59:16;100304.53;;;33.66;46.42
23619;BME280;18207;32.078;34.818;2023-08-20T03:01:47;100297.22;;;33.65;46.09
23619;BME280;18207;32.078;34.818;2023-08-20T03:04:17;100297.22;;;33.65;46.37
23619;BME280;18207;32.078;34.818;2023-08-20T03:06:48;100301.75;;;33.63;46.90
23619;BME280;18207;32.078;34.818;2023-08-20T03:09:18;100293.63;;;33.61;46.52
23619;BME280;18207;32.078;34.818;2023-08-20T03:11:49;100298.97;;;33.59;46.41
23619;BME280;18207;32.078;34.818;2023-08-20T03:14:21;100298.16;;;33.59;46.54
23619;BME280;18207;32.078;34.818;2023-08-20T03:16:55;100291.25;;;33.56;46.18
23619;BME280;18207;32.078;34.818;2023-08-20T03:19:25;100304.25;;;33.57;45.98
23619;BME280;18207;32.078;34.818;2023-08-20T03:21:56;100296.94;;;33.56;46.58
23619;BME280;18207;32.078;34.818;2023-08-20T03:24:27;100296.94;;;33.56;46.47
23619;BME280;18207;32.078;34.818;2023-08-20T03:26:57;100301.41;;;33.57;46.28
23619;BME280;18207;32.078;34.818;2023-08-20T03:29:29;100292.84;;;33.57;46.46
23619;BME280;18207;32.078;34.818;2023-08-20T03:32:00;100300.16;;;33.58;46.27
23619;BME280;18207;32.078;34.818;2023-08-20T03:34:30;100301.00;;;33.59;46.29
23619;BME280;18207;32.078;34.818;2023-08-20T03:37:00;100295.28;;;33.59;46.20
23619;BME280;18207;32.078;34.818;2023-08-20T03:39:31;100301.81;;;33.59;46.45
23619;BME280;18207;32.078;34.818;2023-08-20T03:42:01;100308.31;;;33.60;46.18
23619;BME280;18207;32.078;34.818;2023-08-20T03:44:34;100303.84;;;33.59;46.59
23619;BME280;18207;32.078;34.818;2023-08-20T03:47:04;100300.63;;;33.57;46.51
23619;BME280;18207;32.078;34.818;2023-08-20T03:49:37;100305.88;;;33.58;46.35
23619;BME280;18207;32.078;34.818;2023-08-20T03:52:08;100305.88;;;33.58;46.57
23619;BME280;18207;32.078;34.818;2023-08-20T03:54:38;100309.13;;;33.60;46.51
23619;BME280;18207;32.078;34.818;2023-08-20T03:57:09;100314.38;;;33.62;46.50
23619;BME280;18207;32.078;34.818;2023-08-20T03:59:41;100320.03;;;33.65;46.25
23619;BME280;18207;32.078;34.818;2023-08-20T04:02:13;100315.94;;;33.66;46.25
23619;BME280;18207;32.078;34.818;2023-08-20T04:04:43;100316.31;;;33.68;46.20
23619;BME280;18207;32.078;34.818;2023-08-20T04:07:13;100320.78;;;33.69;46.11
23619;BME280;18207;32.078;34.818;2023-08-20T04:09:44;100323.63;;;33.69;46.35
23619;BME280;18207;32.078;34.818;2023-08-20T04:12:14;100319.16;;;33.68;45.81
23619;BME280;18207;32.078;34.818;2023-08-20T04:14:47;100317.47;;;33.71;45.90
23619;BME280;18207;32.078;34.818;2023-08-20T04:17:17;100328.09;;;33.70;46.53
23619;BME280;18207;32.078;34.818;2023-08-20T04:19:47;100321.94;;;33.72;46.30
23619;BME280;18207;32.078;34.818;2023-08-20T04:22:19;100329.63;;;33.75;46.39
23619;BME280;18207;32.078;34.818;2023-08-20T04:24:50;100327.16;;;33.77;46.37
23619;BME280;18207;32.078;34.818;2023-08-20T04:27:19;100330.34;;;33.79;46.32
23619;BME280;18207;32.078;34.818;2023-08-20T04:29:53;100328.69;;;33.81;46.09
23619;BME280;18207;32.078;34.818;2023-08-20T04:32:23;100323.78;;;33.82;45.96
23619;BME280;18207;32.078;34.818;2023-08-20T04:34:54;100328.63;;;33.85;45.43
23619;BME280;18207;32.078;34.818;2023-08-20T04:37:24;100330.25;;;33.86;45.71
23619;BME280;18207;32.078;34.818;2023-08-20T04:39:55;100327.41;;;33.86;45.85
23619;BME280;18207;32.078;34.818;2023-08-20T04:42:25;100328.19;;;33.86;46.08
23619;BME280;18207;32.078;34.818;2023-08-20T04:44:58;100331.84;;;33.87;45.88
23619;BME280;18207;32.078;34.818;2023-08-20T04:47:29;100337.13;;;33.88;46.42
23619;BME280;18207;32.078;34.818;2023-08-20T04:50:00;100342.38;;;33.90;45.75
23619;BME280;18207;32.078;34.818;2023-08-20T04:52:31;100332.94;;;33.93;46.04
23619;BME280;18207;32.078;34.818;2023-08-20T04:55:02;100336.19;;;33.95;45.63
23619;BME280;18207;32.078;34.818;2023-08-20T04:57:34;100333.25;;;33.98;45.48
23619;BME280;18207;32.078;34.818;2023-08-20T05:00:08;100325.88;;;34.01;45.87
23619;BME280;18207;32.078;34.818;2023-08-20T05:02:39;100326.22;;;34.03;45.54
23619;BME280;18207;32.078;34.818;2023-08-20T05:05:11;100331.88;;;34.06;45.98
23619;BME280;18207;32.078;34.818;2023-08-20T05:07:41;100326.56;;;34.08;46.08
23619;BME280;18207;32.078;34.818;2023-08-20T05:10:12;100328.91;;;34.13;45.52
23619;BME280;18207;32.078;34.818;2023-08-20T05:12:42;100322.31;;;34.16;45.55
23619;BME280;18207;32.078;34.818;2023-08-20T05:15:15;100327.09;;;34.22;45.78
23619;BME280;18207;32.078;34.818;2023-08-20T05:17:46;100325.75;;;34.27;45.50
23619;BME280;18207;32.078;34.818;2023-08-20T05:20:17;100327.66;;;34.33;45.65
23619;BME280;18207;32.078;34.818;2023-08-20T05:22:47;100328.75;;;34.39;45.19
23619;BME280;18207;32.078;34.818;2023-08-20T05:25:18;100324.16;;;34.45;45.50
23619;BME280;18207;32.078;34.818;2023-08-20T05:27:48;100323.16;;;34.52;45.34
23619;BME280;18207;32.078;34.818;2023-08-20T05:30:21;100329.63;;;34.56;45.12
23619;BME280;18207;32.078;34.818;2023-08-20T05:32:52;100328.78;;;34.59;45.02
23619;BME280;18207;32.078;34.818;2023-08-20T05:35:22;100336.09;;;34.60;45.45
23619;BME280;18207;32.078;34.818;2023-08-20T05:37:53;100336.88;;;34.60;45.50
23619;BME280;18207;32.078;34.818;2023-08-20T05:40:23;100334.41;;;34.62;45.51
23619;BME280;18207;32.078;34.818;2023-08-20T05:42:53;100336.03;;;34.63;45.22
23619;BME280;18207;32.078;34.818;2023-08-20T05:45:25;100335.56;;;34.65;45.53
23619;BME280;18207;32.078;34.818;2023-08-20T05:47:58;100342.44;;;34.67;45.04
23619;BME280;18207;32.078;34.818;2023-08-20T05:50:31;100346.91;;;34.68;45.55
23619;BME280;18207;32.078;34.818;2023-08-20T05:53:01;100340.78;;;34.70;45.52
23619;BME280;18207;32.078;34.818;2023-08-20T05:55:32;100346.41;;;34.73;45.00
23619;BME280;18207;32.078;34.818;2023-08-20T05:58:03;100342.72;;;34.73;44.76
23619;BME280;18207;32.078;34.818;2023-08-20T06:00:36;100343.91;;;34.75;45.14
23619;BME280;18207;32.078;34.818;2023-08-20T06:03:07;100340.59;;;34.77;44.52
23619;BME280;18207;32.078;34.818;2023-08-20T06:05:37;100347.03;;;34.81;45.24
23619;BME280;18207;32.078;34.818;2023-08-20T06:08:08;100343.75;;;34.82;44.43
23619;BME280;18207;32.078;34.818;2023-08-20T06:10:38;100343.28;;;34.84;44.46
23619;BME280;18207;32.078;34.818;2023-08-20T06:13:08;100350.16;;;34.86;44.62
23619;BME280;18207;32.078;34.818;2023-08-20T06:15:41;100348.03;;;34.90;44.80
23619;BME280;18207;32.078;34.818;2023-08-20T06:18:11;100353.66;;;34.93;44.78
23619;BME280;18207;32.078;34.818;2023-08-20T06:20:42;100342.59;;;34.95;44.54
23619;BME280;18207;32.078;34.818;2023-08-20T06:23:12;100342.97;;;34.97;44.34
23619;BME280;18207;32.078;34.818;2023-08-20T06:26:03;100345.00;;;34.97;44.86
23619;BME280;18207;32.078;34.818;2023-08-20T06:28:34;100345.28;;;35.02;44.58
23619;BME280;18207;32.078;34.818;2023-08-20T06:31:07;100351.69;;;35.10;45.05
23619;BME280;18207;32.078;34.818;2023-08-20T06:33:38;100358.47;;;35.16;44.43
23619;BME280;18207;32.078;34.818;2023-08-20T06:36:08;100357.50;;;35.22;44.47
23619;BME280;18207;32.078;34.818;2023-08-20T06:38:39;100354.53;;;35.26;44.46
23619;BME280;18207;32.078;34.818;2023-08-20T06:41:09;100352.78;;;35.32;44.27
23619;BME280;18207;32.078;34.818;2023-08-20T06:43:39;100348.13;;;35.38;44.84
23619;BME280;18207;32.078;34.818;2023-08-20T06:46:11;100341.44;;;35.44;44.15
23619;BME280;18207;32.078;34.818;2023-08-20T06:48:41;100350.66;;;35.52;44.71
23619;BME280;18207;32.078;34.818;2023-08-20T06:51:13;100351.28;;;35.59;44.74
23619;BME280;18207;32.078;34.818;2023-08-20T06:53:53;100354.75;;;35.67;43.99
23619;BME280;18207;32.078;34.818;2023-08-20T06:56:25;100335.00;;;35.72;44.50
23619;BME280;18207;32.078;34.818;2023-08-20T06:58:56;100344.66;;;35.78;44.18
23619;BME280;18207;32.078;34.818;2023-08-20T07:01:28;100342.38;;;35.85;43.78
23619;BME280;18207;32.078;34.818;2023-08-20T07:03:59;100343.78;;;35.93;44.08
23619;BME280;18207;32.078;34.818;2023-08-20T07:06:31;100342.84;;;36.00;44.15
23619;BME280;18207;32.078;34.818;2023-08-20T07:09:03;100345.94;;;36.05;44.33
23619;BME280;18207;32.078;34.818;2023-08-20T07:11:36;100343.34;;;36.11;44.27
23619;BME280;18207;32.078;34.818;2023-08-20T07:14:06;100342.09;;;36.12;44.15
23619;BME280;18207;32.078;34.818;2023-08-20T07:16:38;100345.78;;;36.12;43.50
23619;BME280;18207;32.078;34.818;2023-08-20T07:19:09;100343.25;;;36.14;43.51
23619;BME280;18207;32.078;34.818;2023-08-20T07:21:41;100348.06;;;36.17;43.60
23619;BME280;18207;32.078;34.818;2023-08-20T07:24:11;100342.25;;;36.21;44.14
23619;BME280;18207;32.078;34.818;2023-08-20T07:26:43;100344.19;;;36.24;44.18
23619;BME280;18207;32.078;34.818;2023-08-20T07:29:13;100342.03;;;36.28;43.53
23619;BME280;18207;32.078;34.818;2023-08-20T07:31:46;100345.97;;;36.34;43.49
23619;BME280;18207;32.078;34.818;2023-08-20T07:34:16;100340.91;;;36.38;43.94
23619;BME280;18207;32.078;34.818;2023-08-20T07:36:46;100346.09;;;36.43;43.69
23619;BME280;18207;32.078;34.818;2023-08-20T07:39:16;100344.06;;;36.43;43.44
23619;BME280;18207;32.078;34.818;2023-08-20T07:41:47;100347.28;;;36.45;43.57
23619;BME280;18207;32.078;34.818;2023-08-20T07:44:17;100342.69;;;36.48;43.44
23619;BME280;18207;32.078;34.818;2023-08-20T07:46:50;100335.59;;;36.52;43.39
23619;BME280;18207;32.078;34.818;2023-08-20T07:49:20;100340.44;;;36.55;43.75
23619;BME280;18207;32.078;34.818;2023-08-20T07:51:51;100335.41;;;36.59;43.04
23619;BME280;18207;32.078;34.818;2023-08-20T07:54:22;100332.91;;;36.61;43.38
23619;BME280;18207;32.078;34.818;2023-08-20T07:56:52;100333.56;;;36.65;43.27
23619;BME280;18207;32.078;34.818;2023-08-20T07:59:30;100321.66;;;36.67;43.50
23619;BME280;18207;32.078;34.818;2023-08-20T08:02:04;100326.47;;;36.70;43.19
23619;BME280;18207;32.078;34.818;2023-08-20T08:04:35;100319.84;;;36.73;43.37
23619;BME280;18207;32.078;34.818;2023-08-20T08:07:05;100323.06;;;36.75;43.09
23619;BME280;18207;32.078;34.818;2023-08-20T08:09:36;100332.78;;;36.77;43.14
23619;BME280;18207;32.078;34.818;2023-08-20T08:12:06;100322.03;;;36.81;42.67
23619;BME280;18207;32.078;34.818;2023-08-20T08:14:41;100331.78;;;36.83;42.83
23619;BME280;18207;32.078;34.818;2023-08-20T08:17:18;100325.22;;;36.83;42.83
23619;BME280;18207;32.078;34.818;2023-08-20T08:19:49;100321.44;;;36.86;42.88
23619;BME280;18207;32.078;34.818;2023-08-20T08:22:22;100318.94;;;36.88;42.59
23619;BME280;18207;32.078;34.818;2023-08-20T08:24:53;100314.38;;;36.90;43.04
23619;BME280;18207;32.078;34.818;2023-08-20T08:27:24;100313.47;;;36.93;42.88
23619;BME280;18207;32.078;34.818;2023-08-20T08:29:55;100319.09;;;36.97;42.53
23619;BME280;18207;32.078;34.818;2023-08-20T08:32:28;100313.22;;;37.00;43.01
23619;BME280;18207;32.078;34.818;2023-08-20T08:35:02;100313.59;;;37.02;42.29
23619;BME280;18207;32.078;34.818;2023-08-20T08:37:33;100317.94;;;37.07;42.50
23619;BME280;18207;32.078;34.818;2023-08-20T08:40:05;100315.41;;;37.09;42.40
23619;BME280;18207;32.078;34.818;2023-08-20T08:42:36;100312.09;;;37.10;42.28
23619;BME280;18207;32.078;34.818;2023-08-20T08:45:07;100300.16;;;37.12;42.64
23619;BME280;18207;32.078;34.818;2023-08-20T08:47:43;100311.19;;;37.13;42.32
23619;BME280;18207;32.078;34.818;2023-08-20T08:50:17;100300.50;;;37.14;42.57
23619;BME280;18207;32.078;34.818;2023-08-20T08:52:55;100302.56;;;37.13;42.30
23619;BME280;18207;32.078;34.818;2023-08-20T08:55:28;100308.31;;;37.13;42.38
23619;BME280;18207;32.078;34.818;2023-08-20T08:57:59;100303.84;;;37.12;42.60
23619;BME280;18207;32.078;34.818;2023-08-20T09:00:30;100307.06;;;37.14;41.98
23619;BME280;18207;32.078;34.818;2023-08-20T09:03:04;100304.97;;;37.15;42.36
23619;BME280;18207;32.078;34.818;2023-08-20T09:05:47;100313.56;;;37.15;42.20
23619;BME280;18207;32.078;34.818;2023-08-20T09:08:20;100309.91;;;37.14;41.85
23619;BME280;18207;32.078;34.818;2023-08-20T09:10:55;100308.66;;;37.15;42.03
23619;BME280;18207;32.078;34.818;2023-08-20T09:13:32;100300.84;;;37.16;41.76
23619;BME280;18207;32.078;34.818;2023-08-20T09:16:05;100298.75;;;37.16;41.82
23619;BME280;18207;32.078;34.818;2023-08-20T09:18:40;100313.44;;;37.18;42.34
23619;BME280;18207;32.078;34.818;2023-08-20T09:21:12;100298.75;;;37.16;41.90
23619;BME280;18207;32.078;34.818;2023-08-20T09:23:46;100295.09;;;37.16;41.91
23619;BME280;18207;32.078;34.818;2023-08-20T09:26:16;100301.19;;;37.18;42.09
23619;BME280;18207;32.078;34.818;2023-08-20T09:28:47;100306.94;;;37.18;41.65
23619;BME280;18207;32.078;34.818;2023-08-20T09:31:17;100292.25;;;37.16;41.66
23619;BME280;18207;32.078;34.818;2023-08-20T09:33:54;100296.38;;;37.15;42.08
23619;BME280;18207;32.078;34.818;2023-08-20T09:36:32;100291.09;;;37.13;42.17
23619;BME280;18207;32.078;34.818;2023-08-20T09:39:02;100287.41;;;37.13;41.79
23619;BME280;18207;32.078;34.818;2023-08-20T09:41:39;100292.38;;;37.12;42.05
23619;BME280;18207;32.078;34.818;2023-08-20T09:44:10;100289.50;;;37.12;41.71
23619;BME280;18207;32.078;34.818;2023-08-20T09:46:47;100291.91;;;37.14;41.35
23619;BME280;18207;32.078;34.818;2023-08-20T09:49:21;100289.03;;;37.14;41.48
23619;BME280;18207;32.078;34.818;2023-08-20T09:51:55;100287.41;;;37.13;41.76
23619;BME280;18207;32.078;34.818;2023-08-20T09:54:36;100291.09;;;37.13;41.42
23619;BME280;18207;32.078;34.818;2023-08-20T09:57:23;100294.31;;;37.15;41.64
23619;BME280;18207;32.078;34.818;2023-08-20T09:59:57;100289.03;;;37.14;41.76
23619;BME280;18207;32.078;34.818;2023-08-20T10:02:28;100282.63;;;37.10;42.00
23619;BME280;18207;32.078;34.818;2023-08-20T10:05:00;100287.53;;;37.09;41.57
23619;BME280;18207;32.078;34.818;2023-08-20T10:07:32;100269.69;;;37.05;41.37
23619;BME280;18207;32.078;34.818;2023-08-20T10:10:07;100281.59;;;37.04;41.77
23619;BME280;18207;32.078;34.818;2023-08-20T10:12:39;100277.22;;;36.99;41.68
23619;BME280;18207;32.078;34.818;2023-08-20T10:15:11;100280.22;;;36.96;41.28
23619;BME280;18207;32.078;34.818;2023-08-20T10:17:44;100282.72;;;36.94;41.83
23619;BME280;18207;32.078;34.818;2023-08-20T10:20:19;100273.78;;;36.92;41.58
23619;BME280;18207;32.078;34.818;2023-08-20T10:22:51;100279.88;;;36.94;41.74
23619;BME280;18207;32.078;34.818;2023-08-20T10:25:25;100273.09;;;36.88;41.84
23619;BME280;18207;32.078;34.818;2023-08-20T10:28:21;100276.06;;;36.84;41.42
23619;BME280;18207;32.078;34.818;2023-08-20T10:31:08;100274.81;;;36.85;41.56
23619;BME280;18207;32.078;34.818;2023-08-20T10:33:50;100274.00;;;36.85;41.35
23619;BME280;18207;32.078;34.818;2023-08-20T10:36:28;100271.13;;;36.85;41.77
23619;BME280;18207;32.078;34.818;2023-08-20T10:39:05;100267.78;;;36.86;41.50
23619;BME280;18207;32.078;34.818;2023-08-20T10:41:36;100267.34;;;36.88;41.26
23619;BME280;18207;32.078;34.818;2023-08-20T10:44:06;100273.00;;;36.91;41.79
23619;BME280;18207;32.078;34.818;2023-08-20T10:46:50;100261.53;;;36.91;41.61
23619;BME280;18207;32.078;34.818;2023-08-20T10:49:21;100270.13;;;36.91;41.92
23619;BME280;18207;32.078;34.818;2023-08-20T10:51:52;100256.16;;;36.93;41.58
23619;BME280;18207;32.078;34.818;2023-08-20T10:54:25;100264.06;;;36.89;41.71
23619;BME280;18207;32.078;34.818;2023-08-20T10:57:05;100259.19;;;36.86;41.82
23619;BME280;18207;32.078;34.818;2023-08-20T10:59:41;100259.66;;;36.85;41.80
23619;BME280;18207;32.078;34.818;2023-08-20T11:02:15;100256.00;;;36.84;41.35
23619;BME280;18207;32.078;34.818;2023-08-20T11:04:45;100254.75;;;36.85;41.59
23619;BME280;18207;32.078;34.818;2023-08-20T11:07:23;100250.97;;;36.88;41.54
23619;BME280;18207;32.078;34.818;2023-08-20T11:09:57;100240.69;;;36.91;41.68
23619;BME280;18207;32.078;34.818;2023-08-20T11:12:30;100237.00;;;36.90;41.52
23619;BME280;18207;32.078;34.818;2023-08-20T11:15:03;100239.50;;;36.88;41.62
23619;BME280;18207;32.078;34.818;2023-08-20T11:17:33;100237.88;;;36.87;41.67
23619;BME280;18207;32.078;34.818;2023-08-20T11:20:04;100238.81;;;36.84;41.40
23619;BME280;18207;32.078;34.818;2023-08-20T11:22:40;100239.84;;;36.78;41.37
23619;BME280;18207;32.078;34.818;2023-08-20T11:25:12;100237.88;;;36.75;41.54
23619;BME280;18207;32.078;34.818;2023-08-20T11:27:43;100237.22;;;36.71;41.59
23619;BME280;18207;32.078;34.818;2023-08-20T11:30:15;100233.53;;;36.71;41.77
23619;BME280;18207;32.078;34.818;2023-08-20T11:32:47;100229.53;;;36.68;41.73
23619;BME280;18207;32.078;34.818;2023-08-20T11:35:21;100236.88;;;36.69;41.65
23619;BME280;18207;32.078;34.818;2023-08-20T11:37:56;100241.44;;;36.67;41.21
23619;BME280;18207;32.078;34.818;2023-08-20T11:40:27;100231.69;;;36.64;41.58
23619;BME280;18207;32.078;34.818;2023-08-20T11:42:58;100231.34;;;36.62;41.72
23619;BME280;18207;32.078;34.818;2023-08-20T11:45:30;100223.56;;;36.63;41.70
23619;BME280;18207;32.078;34.818;2023-08-20T11:48:01;100219.88;;;36.62;41.32
23619;BME280;18207;32.078;34.818;2023-08-20T11:50:31;100224.84;;;36.62;41.78
23619;BME280;18207;32.078;34.818;2023-08-20T11:53:04;100220.00;;;36.59;41.47
23619;BME280;18207;32.078;34.818;2023-08-20T11:55:34;100224.94;;;36.58;41.45
23619;BME280;18207;32.078;34.818;2023-08-20T11:58:14;100227.00;;;36.58;41.96
23619;BME280;18207;32.078;34.818;2023-08-20T12:00:48;100223.34;;;36.57;41.48
23619;BME280;18207;32.078;34.818;2023-08-20T12:03:19;100213.97;;;36.57;41.66
23619;BME280;18207;32.078;34.818;2023-08-20T12:05:50;100219.22;;;36.58;41.85
23619;BME280;18207;32.078;34.818;2023-08-20T12:08:25;100224.03;;;36.61;41.75
23619;BME280;18207;32.078;34.818;2023-08-20T12:10:58;100219.09;;;36.62;41.34
23619;BME280;18207;32.078;34.818;2023-08-20T12:13:29;100213.84;;;36.60;41.28
23619;BME280;18207;32.078;34.818;2023-08-20T12:15:59;100213.03;;;36.60;41.73
23619;BME280;18207;32.078;34.818;2023-08-20T12:18:30;100213.50;;;36.58;41.78
23619;BME280;18207;32.078;34.818;2023-08-20T12:21:00;100209.03;;;36.57;41.52
23619;BME280;18207;32.078;34.818;2023-08-20T12:23:32;100207.75;;;36.58;41.91
23619;BME280;18207;32.078;34.818;2023-08-20T12:26:02;100209.81;;;36.58;41.81
23619;BME280;18207;32.078;34.818;2023-08-20T12:28:32;100199.16;;;36.58;41.49
23619;BME280;18207;32.078;34.818;2023-08-20T12:31:02;100197.09;;;36.59;41.84
23619;BME280;18207;32.078;34.818;2023-08-20T12:33:32;100196.78;;;36.57;41.99
23619;BME280;18207;32.078;34.818;2023-08-20T12:36:04;100198.81;;;36.56;41.35
23619;BME280;18207;32.078;34.818;2023-08-20T12:38:37;100199.28;;;36.55;41.83
23619;BME280;18207;32.078;34.818;2023-08-20T12:41:08;100200.19;;;36.52;41.67
23619;BME280;18207;32.078;34.818;2023-08-20T12:43:39;100200.44;;;36.45;41.47
23619;BME280;18207;32.078;34.818;2023-08-20T12:46:10;100199.03;;;36.37;41.45
23619;BME280;18207;32.078;34.818;2023-08-20T12:48:42;100184.91;;;36.30;41.34
23619;BME280;18207;32.078;34.818;2023-08-20T12:51:13;100183.31;;;36.29;41.18
23619;BME280;18207;32.078;34.818;2023-08-20T12:53:48;100187.88;;;36.26;41.67
23619;BME280;18207;32.078;34.818;2023-08-20T12:56:21;100190.06;;;36.22;41.16
23619;BME280;18207;32.078;34.818;2023-08-20T12:58:51;100191.78;;;36.20;41.58
23619;BME280;18207;32.078;34.818;2023-08-20T13:01:21;100185.69;;;36.18;41.45
23619;BME280;18207;32.078;34.818;2023-08-20T13:03:52;100189.91;;;36.13;41.77
23619;BME280;18207;32.078;34.818;2023-08-20T13:06:24;100182.28;;;36.10;41.48